createdAt,value
2017-11-27T00:02:10.148Z,3.10
2017-11-27T00:04:37.589Z,3.10
2017-11-27T00:07:06.833Z,3.10
2017-11-27T00:09:34.431Z,3.10
2017-11-27T00:12:02.403Z,3.10
2017-11-27T00:14:30.784Z,3.00
2017-11-27T00:16:58.219Z,3.00
2017-11-27T00:19:25.722Z,3.00
2017-11-27T00:21:53.931Z,2.90
2017-11-27T00:24:21.400Z,2.90
2017-11-27T00:26:48.890Z,2.90
2017-11-27T00:29:16.347Z,2.90
2017-11-27T00:31:45.219Z,3.10
2017-11-27T00:34:12.714Z,3.10
2017-11-27T00:36:40.202Z,3.10
2017-11-27T00:39:07.637Z,3.10
2017-11-27T00:41:35.082Z,3.00
2017-11-27T00:44:03.374Z,3.00
2017-11-27T00:46:31.425Z,3.00
2017-11-27T00:48:58.850Z,3.00
2017-11-27T00:51:26.342Z,3.00
2017-11-27T00:53:54.569Z,3.00
2017-11-27T00:56:31.654Z,3.10
2017-11-27T00:58:59.115Z,3.10
2017-11-27T01:01:26.572Z,3.10
2017-11-27T01:03:58.822Z,3.10
2017-11-27T01:06:26.249Z,3.10
2017-11-27T01:08:54.493Z,3.10
2017-11-27T01:11:21.954Z,3.10
2017-11-27T01:13:49.408Z,3.10
2017-11-27T01:16:17.670Z,3.10
2017-11-27T01:18:49.074Z,3.10
2017-11-27T01:21:16.566Z,3.20
2017-11-27T01:23:45.085Z,3.10
2017-11-27T01:26:13.472Z,3.10
2017-11-27T01:28:40.922Z,3.10
2017-11-27T01:31:08.353Z,3.20
2017-11-27T01:33:39.303Z,3.10
2017-11-27T01:36:07.252Z,3.10
2017-11-27T01:38:34.770Z,3.10
2017-11-27T01:41:03.782Z,3.10
2017-11-27T01:43:31.242Z,3.10
2017-11-27T01:45:58.706Z,3.10
2017-11-27T01:48:26.154Z,3.20
2017-11-27T01:50:53.614Z,3.20
2017-11-27T01:53:21.914Z,3.20
2017-11-27T01:55:49.431Z,3.20
2017-11-27T01:58:17.107Z,3.20
2017-11-27T02:00:44.550Z,3.10
2017-11-27T02:03:12.010Z,3.10
2017-11-27T02:05:39.479Z,3.20
2017-11-27T02:08:07.040Z,3.10
2017-11-27T02:10:34.547Z,3.20
2017-11-27T02:13:02.028Z,3.10
2017-11-27T02:15:30.270Z,3.20
2017-11-27T02:17:57.726Z,3.10
2017-11-27T02:20:25.909Z,3.10
2017-11-27T02:22:53.370Z,3.10
2017-11-27T02:25:22.258Z,3.00
2017-11-27T02:27:49.729Z,3.00
2017-11-27T02:30:17.221Z,3.10
2017-11-27T02:32:44.990Z,3.10
2017-11-27T02:35:12.451Z,3.00
2017-11-27T02:37:40.107Z,3.10
2017-11-27T02:40:08.485Z,3.00
2017-11-27T02:42:36.974Z,3.00
2017-11-27T02:45:04.432Z,3.10
2017-11-27T02:47:31.881Z,3.00
2017-11-27T02:49:59.351Z,3.00
2017-11-27T02:52:28.569Z,3.10
2017-11-27T02:54:56.057Z,3.10
2017-11-27T02:57:23.538Z,3.10
2017-11-27T02:59:50.993Z,3.10
2017-11-27T03:02:18.459Z,3.00
2017-11-27T03:04:47.126Z,3.10
2017-11-27T03:07:14.618Z,3.10
2017-11-27T03:09:42.070Z,3.10
2017-11-27T03:12:09.546Z,3.10
2017-11-27T03:14:37.063Z,3.10
2017-11-27T03:17:04.513Z,3.10
2017-11-27T03:19:36.266Z,3.00
2017-11-27T03:22:04.477Z,3.00
2017-11-27T03:24:31.998Z,3.00
2017-11-27T03:26:59.519Z,3.00
2017-11-27T03:29:26.994Z,3.10
2017-11-27T03:31:54.676Z,3.10
2017-11-27T03:34:26.642Z,3.00
2017-11-27T03:36:54.845Z,3.00
2017-11-27T03:39:22.333Z,3.00
2017-11-27T03:41:50.525Z,2.90
2017-11-27T03:44:18.060Z,2.90
2017-11-27T03:46:45.825Z,2.90
2017-11-27T03:49:13.303Z,2.90
2017-11-27T03:51:40.811Z,2.90
2017-11-27T03:54:08.277Z,2.90
2017-11-27T03:56:35.714Z,2.90
2017-11-27T03:59:04.096Z,3.00
2017-11-27T04:01:31.526Z,3.00
2017-11-27T04:03:58.994Z,3.00
2017-11-27T04:06:30.806Z,3.10
2017-11-27T04:08:59.825Z,3.10
2017-11-27T04:11:27.303Z,3.10
2017-11-27T04:13:54.761Z,3.10
2017-11-27T04:16:22.216Z,3.20
2017-11-27T04:18:50.206Z,3.20
2017-11-27T04:21:23.892Z,3.20
2017-11-27T04:23:51.373Z,3.20
2017-11-27T04:26:18.965Z,3.30
2017-11-27T04:28:46.613Z,3.20
2017-11-27T04:31:14.339Z,3.20
2017-11-27T04:33:41.794Z,3.20
2017-11-27T04:36:20.203Z,3.30
2017-11-27T04:38:47.625Z,3.40
2017-11-27T04:41:15.126Z,3.40
2017-11-27T04:43:42.577Z,3.40
2017-11-27T04:46:10.036Z,3.40
2017-11-27T04:48:37.485Z,3.40
2017-11-27T04:51:15.698Z,3.40
2017-11-27T04:53:43.130Z,3.40
2017-11-27T04:56:10.679Z,3.40
2017-11-27T04:58:38.146Z,3.50
2017-11-27T05:01:05.602Z,3.50
2017-11-27T05:03:33.075Z,3.40
2017-11-27T05:06:04.220Z,3.30
2017-11-27T05:08:31.681Z,3.30
2017-11-27T05:10:59.342Z,3.30
2017-11-27T05:13:26.857Z,3.30
2017-11-27T05:15:54.290Z,3.30
2017-11-27T05:18:21.951Z,3.30
2017-11-27T05:20:49.388Z,3.30
2017-11-27T05:23:16.817Z,3.30
2017-11-27T05:25:44.286Z,3.20
2017-11-27T05:28:13.398Z,3.10
2017-11-27T05:30:40.930Z,3.10
2017-11-27T05:33:08.392Z,3.10
2017-11-27T05:35:35.869Z,2.90
2017-11-27T05:38:03.522Z,2.80
2017-11-27T05:40:30.989Z,2.60
2017-11-27T05:42:58.425Z,2.60
2017-11-27T05:45:27.917Z,2.50
2017-11-27T05:47:55.362Z,2.50
2017-11-27T05:50:22.833Z,2.60
2017-11-27T05:52:50.353Z,2.70
2017-11-27T05:55:17.838Z,2.80
2017-11-27T05:57:46.635Z,2.90
2017-11-27T06:00:14.405Z,2.90
2017-11-27T06:02:41.890Z,3.00
2017-11-27T06:05:09.422Z,3.10
2017-11-27T06:07:36.877Z,3.10
2017-11-27T06:10:04.824Z,3.10
2017-11-27T06:12:32.340Z,3.10
2017-11-27T06:14:59.801Z,3.20
2017-11-27T06:17:27.434Z,3.30
2017-11-27T06:19:54.910Z,3.30
2017-11-27T06:22:22.349Z,3.30
2017-11-27T06:24:49.913Z,3.30
2017-11-27T06:27:17.521Z,3.20
2017-11-27T06:29:44.986Z,3.30
2017-11-27T06:32:13.990Z,3.20
2017-11-27T06:34:41.438Z,3.20
2017-11-27T06:37:13.335Z,3.10
2017-11-27T06:39:40.972Z,3.20
2017-11-27T06:42:08.413Z,3.20
2017-11-27T06:44:35.870Z,3.20
2017-11-27T06:47:03.372Z,3.20
2017-11-27T06:49:32.017Z,3.10
2017-11-27T06:51:59.510Z,3.10
2017-11-27T06:54:27.201Z,3.00
2017-11-27T06:56:55.163Z,2.90
2017-11-27T06:59:22.866Z,2.80
2017-11-27T07:01:50.333Z,2.70
2017-11-27T07:04:17.968Z,2.70
2017-11-27T07:06:45.422Z,2.60
2017-11-27T07:09:12.881Z,2.60
2017-11-27T07:11:41.291Z,2.60
2017-11-27T07:14:08.822Z,2.60
2017-11-27T07:16:36.252Z,2.60
2017-11-27T07:19:03.764Z,2.60
2017-11-27T07:21:31.297Z,2.70
2017-11-27T07:23:58.739Z,2.80
2017-11-27T07:26:26.216Z,2.90
2017-11-27T07:28:54.571Z,2.90
2017-11-27T07:31:22.029Z,2.90
2017-11-27T07:33:49.525Z,3.00
2017-11-27T07:36:16.966Z,2.90
2017-11-27T07:38:54.627Z,2.80
2017-11-27T07:41:22.070Z,2.80
2017-11-27T07:43:50.685Z,2.80
2017-11-27T07:46:18.158Z,2.80
2017-11-27T07:48:45.638Z,2.90
2017-11-27T07:51:13.201Z,2.80
2017-11-27T07:53:40.641Z,2.80
2017-11-27T07:56:08.127Z,2.90
2017-11-27T07:58:35.779Z,3.00
2017-11-27T08:01:04.166Z,3.00
2017-11-27T08:03:31.614Z,3.10
2017-11-27T08:05:59.128Z,3.30
2017-11-27T08:08:26.584Z,3.60
2017-11-27T08:10:54.418Z,3.80
2017-11-27T08:13:21.910Z,4.10
2017-11-27T08:15:49.882Z,4.40
2017-11-27T08:18:18.431Z,4.80
2017-11-27T08:20:45.898Z,4.80
2017-11-27T08:23:13.446Z,4.80
2017-11-27T08:25:42.593Z,4.70
2017-11-27T08:28:10.073Z,4.70
2017-11-27T08:30:38.066Z,4.70
2017-11-27T08:33:05.501Z,4.60
2017-11-27T08:35:33.082Z,4.50
2017-11-27T08:38:00.533Z,4.50
2017-11-27T08:40:28.069Z,4.40
2017-11-27T08:42:55.937Z,4.40
2017-11-27T08:45:23.517Z,4.40
2017-11-27T08:47:51.259Z,4.40
2017-11-27T08:50:18.722Z,4.40
2017-11-27T08:52:47.022Z,4.40
2017-11-27T08:55:18.554Z,4.50
2017-11-27T08:57:45.998Z,4.60
2017-11-27T09:00:13.991Z,4.60
2017-11-27T09:02:41.438Z,4.60
2017-11-27T09:05:09.856Z,4.50
2017-11-27T09:07:37.359Z,4.50
2017-11-27T09:10:04.794Z,4.40
2017-11-27T09:12:32.237Z,4.40
2017-11-27T09:14:59.699Z,4.30
2017-11-27T09:17:27.187Z,4.30
2017-11-27T09:19:54.704Z,4.30
2017-11-27T09:22:22.411Z,4.20
2017-11-27T09:24:53.800Z,4.00
2017-11-27T09:27:21.904Z,3.90
2017-11-27T09:29:49.372Z,4.00
2017-11-27T09:32:16.835Z,4.10
2017-11-27T09:34:44.313Z,4.20
2017-11-27T09:37:11.765Z,4.10
2017-11-27T09:39:39.189Z,4.10
2017-11-27T09:42:08.354Z,4.20
2017-11-27T09:44:37.572Z,4.10
2017-11-27T09:47:05.141Z,4.10
2017-11-27T09:49:33.312Z,4.10
2017-11-27T09:52:00.784Z,4.10
2017-11-27T09:54:28.215Z,4.30
2017-11-27T09:56:58.489Z,4.50
2017-11-27T09:59:27.618Z,4.60
2017-11-27T10:01:55.994Z,4.70
2017-11-27T10:04:24.257Z,4.70
2017-11-27T10:06:51.868Z,4.70
2017-11-27T10:09:19.333Z,4.80
2017-11-27T10:11:49.691Z,5.00
2017-11-27T10:14:17.229Z,5.00
2017-11-27T10:16:44.781Z,5.00
2017-11-27T10:19:12.294Z,5.00
2017-11-27T10:21:39.731Z,5.00
2017-11-27T10:24:07.972Z,5.10
2017-11-27T10:26:36.574Z,5.50
2017-11-27T10:29:04.009Z,5.50
2017-11-27T10:31:31.490Z,5.60
2017-11-27T10:33:58.976Z,5.30
2017-11-27T10:36:26.458Z,5.20
2017-11-27T10:38:54.682Z,5.10
2017-11-27T10:41:25.699Z,5.10
2017-11-27T10:43:53.157Z,5.20
2017-11-27T10:46:20.627Z,5.30
2017-11-27T10:48:48.086Z,5.50
2017-11-27T10:51:16.250Z,5.60
2017-11-27T10:53:44.804Z,5.80
2017-11-27T10:56:12.302Z,6.00
2017-11-27T10:58:43.961Z,6.10
2017-11-27T11:01:11.644Z,6.20
2017-11-27T11:03:40.623Z,6.40
2017-11-27T11:06:08.110Z,6.40
2017-11-27T11:08:36.203Z,6.40
2017-11-27T11:11:04.205Z,6.50
2017-11-27T11:13:34.531Z,6.50
2017-11-27T11:16:02.000Z,6.50
2017-11-27T11:18:30.959Z,6.30
2017-11-27T11:21:00.318Z,6.30
2017-11-27T11:23:27.777Z,6.20
2017-11-27T11:25:55.232Z,6.20
2017-11-27T11:28:31.256Z,6.30
2017-11-27T11:31:00.036Z,6.40
2017-11-27T11:33:27.500Z,6.40
2017-11-27T11:35:54.949Z,6.50
2017-11-27T11:38:22.430Z,6.50
2017-11-27T11:40:49.870Z,6.50
2017-11-27T11:43:17.426Z,6.40
2017-11-27T11:45:44.898Z,6.40
2017-11-27T11:48:13.259Z,6.30
2017-11-27T11:50:40.768Z,6.30
2017-11-27T11:53:08.278Z,6.30
2017-11-27T11:55:36.033Z,6.30
2017-11-27T11:58:06.585Z,6.40
2017-11-27T12:00:34.886Z,6.40
2017-11-27T12:03:03.329Z,6.40
2017-11-27T12:05:31.405Z,6.40
2017-11-27T12:07:59.062Z,6.30
2017-11-27T12:10:28.153Z,6.30
2017-11-27T12:12:55.612Z,6.30
2017-11-27T12:15:26.457Z,6.30
2017-11-27T12:17:53.918Z,6.30
2017-11-27T12:20:22.037Z,6.30
2017-11-27T12:22:49.486Z,6.30
2017-11-27T12:25:16.943Z,6.40
2017-11-27T12:27:44.421Z,6.50
2017-11-27T12:30:11.867Z,6.50
2017-11-27T12:32:39.307Z,6.50
2017-11-27T12:35:06.785Z,6.60
2017-11-27T12:37:34.241Z,6.60
2017-11-27T12:40:01.795Z,6.50
2017-11-27T12:42:30.249Z,6.50
2017-11-27T12:45:00.825Z,6.50
2017-11-27T12:47:28.326Z,6.60
2017-11-27T12:49:55.801Z,6.60
2017-11-27T12:52:24.036Z,6.50
2017-11-27T12:54:51.522Z,6.50
2017-11-27T12:57:20.575Z,6.50
2017-11-27T12:59:51.941Z,6.50
2017-11-27T13:02:20.278Z,6.40
2017-11-27T13:04:47.757Z,6.30
2017-11-27T13:07:15.276Z,6.30
2017-11-27T13:09:42.797Z,6.20
2017-11-27T13:12:10.274Z,6.10
2017-11-27T13:14:41.401Z,6.10
2017-11-27T13:17:09.613Z,6.10
2017-11-27T13:19:37.941Z,5.90
2017-11-27T13:22:05.605Z,5.90
2017-11-27T13:24:33.044Z,5.90
2017-11-27T13:27:01.067Z,5.80
2017-11-27T13:29:28.570Z,5.80
2017-11-27T13:31:56.525Z,5.80
2017-11-27T13:34:24.018Z,5.70
2017-11-27T13:36:52.171Z,5.60
2017-11-27T13:39:19.603Z,5.60
2017-11-27T13:41:48.023Z,5.60
2017-11-27T13:44:15.479Z,5.50
2017-11-27T13:46:42.973Z,5.40
2017-11-27T13:49:11.223Z,5.40
2017-11-27T13:51:38.801Z,5.20
2017-11-27T13:54:07.703Z,5.10
2017-11-27T13:56:35.938Z,5.10
2017-11-27T13:59:03.394Z,5.00
2017-11-27T14:01:30.921Z,5.00
2017-11-27T14:03:58.398Z,4.90
2017-11-27T14:06:26.315Z,4.90
2017-11-27T14:08:53.986Z,4.80
2017-11-27T14:11:21.431Z,4.80
2017-11-27T14:13:49.238Z,4.80
2017-11-27T14:16:16.692Z,4.70
2017-11-27T14:18:44.166Z,4.70
2017-11-27T14:21:12.064Z,4.60
2017-11-27T14:23:39.655Z,4.60
2017-11-27T14:26:07.230Z,4.60
2017-11-27T14:28:34.849Z,4.60
2017-11-27T14:31:02.288Z,4.50
2017-11-27T14:33:29.768Z,4.50
2017-11-27T14:35:58.939Z,4.40
2017-11-27T14:38:26.387Z,4.40
2017-11-27T14:40:53.878Z,4.30
2017-11-27T14:43:22.339Z,4.40
2017-11-27T14:45:49.812Z,4.30
2017-11-27T14:48:18.677Z,4.30
2017-11-27T14:50:46.166Z,4.30
2017-11-27T14:53:14.068Z,4.30
2017-11-27T14:55:42.406Z,4.30
2017-11-27T14:58:10.246Z,4.30
2017-11-27T15:00:37.743Z,4.30
2017-11-27T15:03:05.268Z,4.30
2017-11-27T15:05:32.745Z,4.30
2017-11-27T15:08:00.206Z,4.30
2017-11-27T15:10:28.479Z,4.30
2017-11-27T15:12:57.141Z,4.20
2017-11-27T15:15:24.625Z,4.30
2017-11-27T15:17:52.242Z,4.20
2017-11-27T15:20:21.443Z,4.20
2017-11-27T15:22:48.890Z,4.20
2017-11-27T15:25:16.315Z,4.20
2017-11-27T15:27:43.814Z,4.20
2017-11-27T15:30:11.940Z,4.20
2017-11-27T15:32:44.505Z,4.30
2017-11-27T15:35:11.951Z,4.30
2017-11-27T15:37:39.450Z,4.30
2017-11-27T15:40:06.940Z,4.30
2017-11-27T15:42:35.290Z,4.30
2017-11-27T15:45:02.755Z,4.30
2017-11-27T15:47:33.313Z,4.40
2017-11-27T15:50:01.119Z,4.40
2017-11-27T15:52:30.314Z,4.40
2017-11-27T15:54:57.754Z,4.40
2017-11-27T15:57:25.204Z,4.40
2017-11-27T15:59:53.413Z,4.40
2017-11-27T16:02:20.868Z,4.40
2017-11-27T16:04:49.817Z,4.50
2017-11-27T16:07:17.294Z,4.40
2017-11-27T16:09:45.541Z,4.50
2017-11-27T16:12:13.357Z,4.50
2017-11-27T16:14:41.283Z,4.60
2017-11-27T16:17:12.526Z,4.50
2017-11-27T16:19:40.018Z,4.60
2017-11-27T16:22:07.474Z,4.60
2017-11-27T16:24:35.205Z,4.60
2017-11-27T16:27:03.851Z,4.70
2017-11-27T16:29:31.908Z,4.70
2017-11-27T16:32:06.732Z,4.70
2017-11-27T16:34:37.025Z,4.80
2017-11-27T16:37:04.494Z,4.80
2017-11-27T16:39:31.965Z,4.80
2017-11-27T16:41:59.422Z,4.80
2017-11-27T16:44:27.214Z,4.90
2017-11-27T16:46:54.669Z,4.90
2017-11-27T16:49:25.261Z,4.90
2017-11-27T16:51:52.732Z,4.90
2017-11-27T16:54:21.266Z,4.80
2017-11-27T16:56:48.750Z,4.80
2017-11-27T16:59:16.195Z,4.90
2017-11-27T17:01:43.642Z,4.90
2017-11-27T17:04:14.556Z,4.80
2017-11-27T17:06:42.019Z,4.80
2017-11-27T17:09:09.488Z,4.80
2017-11-27T17:11:37.886Z,4.80
2017-11-27T17:14:05.487Z,4.80
2017-11-27T17:16:32.948Z,4.80
2017-11-27T17:19:04.481Z,4.80
2017-11-27T17:21:32.688Z,4.70
2017-11-27T17:24:00.855Z,4.70
2017-11-27T17:26:28.299Z,4.80
2017-11-27T17:28:56.338Z,4.80
2017-11-27T17:31:23.779Z,4.70
2017-11-27T17:33:55.672Z,4.70
2017-11-27T17:36:23.097Z,4.80
2017-11-27T17:38:50.547Z,4.80
2017-11-27T17:41:18.078Z,4.70
2017-11-27T17:43:45.565Z,4.70
2017-11-27T17:46:13.005Z,4.80
2017-11-27T17:48:44.427Z,4.70
2017-11-27T17:51:12.516Z,4.70
2017-11-27T17:53:40.010Z,4.70
2017-11-27T17:56:07.779Z,4.60
2017-11-27T17:58:36.047Z,4.60
2017-11-27T18:01:03.550Z,4.60
2017-11-27T18:03:34.038Z,4.60
2017-11-27T18:06:11.946Z,4.50
2017-11-27T18:08:39.399Z,4.60
2017-11-27T18:11:06.878Z,4.60
2017-11-27T18:13:34.366Z,4.60
2017-11-27T18:16:01.853Z,4.60
2017-11-27T18:18:29.315Z,4.50
2017-11-27T18:20:56.805Z,4.50
2017-11-27T18:23:24.296Z,4.50
2017-11-27T18:25:51.907Z,4.60
2017-11-27T18:28:19.359Z,4.60
2017-11-27T18:30:47.081Z,4.60
2017-11-27T18:33:16.129Z,4.60
2017-11-27T18:35:43.607Z,4.60
2017-11-27T18:38:11.103Z,4.60
2017-11-27T18:40:38.586Z,4.60
2017-11-27T18:43:06.822Z,4.60
2017-11-27T18:45:34.304Z,4.60
2017-11-27T18:48:01.794Z,4.60
2017-11-27T18:50:29.238Z,4.50
2017-11-27T18:52:58.277Z,4.50
2017-11-27T18:55:25.741Z,4.50
2017-11-27T18:57:54.119Z,4.50
2017-11-27T19:00:21.543Z,4.50
2017-11-27T19:02:49.814Z,4.40
2017-11-27T19:05:18.169Z,4.40
2017-11-27T19:07:46.035Z,4.50
2017-11-27T19:10:13.501Z,4.50
2017-11-27T19:12:41.119Z,4.40
2017-11-27T19:15:08.563Z,4.40
2017-11-27T19:17:36.029Z,4.40
2017-11-27T19:20:07.739Z,4.40
2017-11-27T19:22:35.177Z,4.40
2017-11-27T19:25:02.675Z,4.40
2017-11-27T19:27:30.914Z,4.40
2017-11-27T19:29:58.442Z,4.40
2017-11-27T19:32:26.687Z,4.50
2017-11-27T19:34:56.993Z,4.50
2017-11-27T19:37:25.276Z,4.50
2017-11-27T19:39:52.781Z,4.40
2017-11-27T19:42:20.588Z,4.40
2017-11-27T19:44:49.534Z,4.40
2017-11-27T19:47:17.014Z,4.40
2017-11-27T19:49:44.480Z,4.40
2017-11-27T19:52:11.914Z,4.40
2017-11-27T19:54:39.396Z,4.50
2017-11-27T19:57:06.856Z,4.40
2017-11-27T19:59:34.487Z,4.40
2017-11-27T20:02:01.972Z,4.40
2017-11-27T20:04:30.726Z,4.30
2017-11-27T20:07:05.458Z,4.30
2017-11-27T20:09:32.947Z,4.40
2017-11-27T20:12:01.754Z,4.40
2017-11-27T20:14:29.221Z,4.40
2017-11-27T20:16:57.486Z,4.40
2017-11-27T20:19:25.590Z,4.30
2017-11-27T20:21:53.699Z,4.30
2017-11-27T20:24:21.181Z,4.30
2017-11-27T20:26:49.222Z,4.30
2017-11-27T20:29:16.878Z,4.30
2017-11-27T20:31:46.250Z,4.30
2017-11-27T20:34:14.833Z,4.30
2017-11-27T20:36:42.306Z,4.30
2017-11-27T20:39:09.762Z,4.40
2017-11-27T20:41:37.252Z,4.40
2017-11-27T20:44:04.685Z,4.40
2017-11-27T20:46:32.167Z,4.40
2017-11-27T20:48:59.655Z,4.40
2017-11-27T20:51:28.793Z,4.40
2017-11-27T20:53:56.289Z,4.40
2017-11-27T20:56:23.727Z,4.30
2017-11-27T20:58:51.297Z,4.40
2017-11-27T21:01:18.746Z,4.30
2017-11-27T21:03:46.654Z,4.30
2017-11-27T21:06:14.113Z,4.30
2017-11-27T21:08:42.733Z,4.30
2017-11-27T21:11:10.206Z,4.30
2017-11-27T21:13:37.682Z,4.30
2017-11-27T21:16:05.137Z,4.30
2017-11-27T21:18:32.597Z,4.30
2017-11-27T21:21:01.485Z,4.30
2017-11-27T21:23:28.991Z,4.30
2017-11-27T21:25:56.423Z,4.20
2017-11-27T21:28:23.973Z,4.30
2017-11-27T21:30:52.224Z,4.30
2017-11-27T21:33:20.421Z,4.30
2017-11-27T21:35:47.863Z,4.30
2017-11-27T21:38:16.852Z,4.30
2017-11-27T21:40:45.519Z,4.30
2017-11-27T21:43:13.002Z,4.30
2017-11-27T21:45:41.334Z,4.30
2017-11-27T21:48:09.836Z,4.40
2017-11-27T21:50:37.270Z,4.40
2017-11-27T21:53:08.054Z,4.40
2017-11-27T21:55:35.522Z,4.40
2017-11-27T21:58:05.441Z,4.40
2017-11-27T22:00:33.086Z,4.40
2017-11-27T22:03:00.861Z,4.30
2017-11-27T22:05:29.131Z,4.30
2017-11-27T22:08:00.181Z,4.30
2017-11-27T22:10:27.837Z,4.30
2017-11-27T22:12:55.283Z,4.30
2017-11-27T22:15:22.770Z,4.30
2017-11-27T22:17:50.276Z,4.30
2017-11-27T22:20:17.730Z,4.30
2017-11-27T22:22:45.230Z,4.30
2017-11-27T22:25:13.110Z,4.30
2017-11-27T22:27:41.903Z,4.30
2017-11-27T22:30:10.145Z,4.30
2017-11-27T22:32:38.098Z,4.30
2017-11-27T22:35:05.570Z,4.30
2017-11-27T22:37:33.929Z,4.30
2017-11-27T22:40:01.949Z,4.40
2017-11-27T22:42:29.441Z,4.30
2017-11-27T22:44:56.969Z,4.30
2017-11-27T22:47:24.493Z,4.30
2017-11-27T22:49:51.956Z,4.30
2017-11-27T22:52:19.429Z,4.40
2017-11-27T22:54:46.898Z,4.40
2017-11-27T22:57:15.160Z,4.40
2017-11-27T22:59:42.596Z,4.40
2017-11-27T23:02:11.002Z,4.40
2017-11-27T23:04:38.528Z,4.40
2017-11-27T23:07:05.973Z,4.40
2017-11-27T23:09:33.434Z,4.50
2017-11-27T23:12:00.938Z,4.50
2017-11-27T23:14:30.063Z,4.50
2017-11-27T23:16:57.547Z,4.50
2017-11-27T23:19:25.010Z,4.50
2017-11-27T23:21:52.467Z,4.50
2017-11-27T23:24:22.996Z,4.50
2017-11-27T23:26:50.423Z,4.50
2017-11-27T23:29:18.430Z,4.50
2017-11-27T23:31:45.904Z,4.50
2017-11-27T23:34:13.972Z,4.50
2017-11-27T23:36:41.487Z,4.40
2017-11-27T23:39:12.695Z,4.40
2017-11-27T23:41:40.153Z,4.40
2017-11-27T23:44:09.308Z,4.50
2017-11-27T23:46:36.790Z,4.40
2017-11-27T23:49:04.254Z,4.50
2017-11-27T23:51:31.698Z,4.50
2017-11-27T23:54:00.027Z,4.50
2017-11-27T23:56:27.840Z,4.40
2017-11-27T23:58:55.707Z,4.40
